Punta Santiago, Puerto Rico
Current Conditions -  °F | °C
As of 3:53 PM on Friday 31 Oct 2014 (Local Time) from TJNR Reporting Station
Few Clouds Few Clouds  
Wind Chill: 81°   Ceiling: Unl
Heat Index: 87°   Visibility: 10mi
Dew Point: 76°   Wind: 6mph
Humidity: 85%   Direction: 220°SW
Pressure: 29.89"   Gusts: NA
Location:  18.16°N, 65.76°W
Report Text: TJNR 311953Z AUTO 22005KT 10SM FEW025 27/24 A2989 RMK AO2 RAE03 SLP120 P0000 T02720244 $
Loading
Personal Weather Stations






























Interactive Weather Map
Tropical Storm Tracking
New forecast layout! Learn more

10-Day Weather Forecast

Advertisements
Track Severe Weather on mobile